Time;durP1;ratioP1;P1;durP2;ratioP2;P2;SDS_P1;SDS_P2;PMS_P1;PMS_P2;Temp;Humidity;BMP_temperature;BMP_pressure;BME280_temperature;BME280_humidity;BME280_pressure;Samples;Min_cycle;Max_cycle;Signal;HPM_P1;HPM_P2
2022/11/14 00:01:11;;;;;;;;;9.25;7.50;;;;;5.12;90.53;99572.41;4990095;27;101784;-73
2022/11/14 00:03:38;;;;;;;;;9.00;6.75;;;;;5.10;90.47;99555.59;4989029;27;102055;-72
2022/11/14 00:06:06;;;;;;;;;7.00;6.00;;;;;5.10;90.23;99559.13;4984941;27;103351;-74
2022/11/14 00:08:34;;;;;;;;;12.50;9.50;;;;;5.05;90.26;99549.81;4988262;27;102171;-73
2022/11/14 00:11:01;;;;;;;;;7.00;5.00;;;;;5.10;90.49;99547.56;4989833;27;102383;-73
2022/11/14 00:13:28;;;;;;;;;6.25;6.25;;;;;5.10;90.48;99536.84;4991841;27;102575;-73
2022/11/14 00:15:55;;;;;;;;;3.75;3.75;;;;;5.13;90.22;99544.59;4989987;27;103665;-73
2022/11/14 00:18:22;;;;;;;;;22.00;18.00;;;;;4.81;90.95;99520.81;4984720;27;102958;-74
2022/11/14 00:20:51;;;;;;;;;25.50;19.75;;;;;4.97;91.28;99545.19;4991663;27;102131;-73
2022/11/14 00:23:19;;;;;;;;;15.00;11.75;;;;;4.93;90.95;99544.63;4993841;27;102437;-73
2022/11/14 00:25:47;;;;;;;;;9.75;8.00;;;;;4.99;91.30;99551.25;4980577;27;104164;-73
2022/11/14 00:28:13;;;;;;;;;24.25;20.00;;;;;4.80;91.45;99559.28;4992946;28;102276;-74
2022/11/14 00:30:45;;;;;;;;;24.25;18.75;;;;;4.82;91.88;99551.94;4982491;27;102166;-73
2022/11/14 00:33:11;;;;;;;;;16.75;12.25;;;;;4.83;92.12;99567.91;4983706;27;102539;-73
2022/11/14 00:35:53;;;;;;;;;16.75;12.50;;;;;4.85;91.77;99557.03;4982810;27;104179;-73
2022/11/14 00:38:21;;;;;;;;;7.25;5.75;;;;;4.90;91.77;99562.81;4992430;27;102459;-74
2022/11/14 00:40:48;;;;;;;;;10.50;6.50;;;;;4.92;91.45;99563.50;4990916;28;102031;-73
2022/11/14 00:43:15;;;;;;;;;16.75;13.25;;;;;4.89;91.35;99558.44;4996392;27;102036;-73
2022/11/14 00:45:46;;;;;;;;;19.25;13.00;;;;;4.92;91.44;99555.47;4992450;27;104028;-74
2022/11/14 00:48:14;;;;;;;;;10.75;10.00;;;;;4.93;91.47;99565.22;4995086;27;102143;-73
2022/11/14 00:50:42;;;;;;;;;23.75;20.00;;;;;4.92;91.61;99566.19;4995425;27;103624;-74
2022/11/14 00:53:09;;;;;;;;;38.50;29.50;;;;;4.81;91.79;99563.69;4993470;27;102153;-74
2022/11/14 00:55:36;;;;;;;;;27.25;20.25;;;;;4.81;92.29;99563.69;4986099;27;103938;-72
2022/11/14 00:58:03;;;;;;;;;17.50;14.00;;;;;4.83;91.88;99557.16;4992185;27;101938;-73
2022/11/14 01:00:30;;;;;;;;;13.75;10.25;;;;;4.88;91.46;99554.06;4990515;27;103434;-73
2022/11/14 01:02:57;;;;;;;;;8.75;8.00;;;;;4.93;91.77;99551.81;4989253;27;102425;-73
2022/11/14 01:05:24;;;;;;;;;5.50;3.25;;;;;4.99;91.63;99553.09;4982289;27;103939;-73
2022/11/14 01:07:52;;;;;;;;;8.25;7.50;;;;;4.97;91.32;99539.81;4983540;27;102307;-73
2022/11/14 01:10:19;;;;;;;;;6.50;5.50;;;;;5.01;90.99;99551.94;4986407;27;102517;-74
2022/11/14 01:12:46;;;;;;;;;12.75;12.00;;;;;5.03;91.10;99533.06;4985091;27;104714;-74
2022/11/14 01:15:14;;;;;;;;;11.25;9.00;;;;;5.02;90.78;99540.25;4984822;27;104147;-74
2022/11/14 01:17:40;;;;;;;;;30.25;23.00;;;;;4.96;91.36;99530.09;4985112;27;102450;-74
2022/11/14 01:20:08;;;;;;;;;28.75;22.25;;;;;4.85;92.12;99524.88;4988222;27;102014;-73
2022/11/14 01:22:35;;;;;;;;;38.75;31.00;;;;;4.80;91.81;99528.00;5009664;28;101917;-74
2022/11/14 01:25:02;;;;;;;;;37.50;30.50;;;;;4.65;92.36;99518.69;4987235;27;108748;-74
2022/11/14 01:27:30;;;;;;;;;20.75;14.75;;;;;4.75;92.81;99522.22;4991449;27;102474;-74
2022/11/14 01:29:57;;;;;;;;;14.75;12.50;;;;;4.84;92.60;99513.31;4985507;27;102544;-74
2022/11/14 01:32:25;;;;;;;;;12.00;9.00;;;;;4.87;92.08;99509.50;4982335;28;102676;-74
2022/11/14 01:34:52;;;;;;;;;5.75;5.50;;;;;4.91;91.93;99509.06;4985094;27;104021;-73
2022/11/14 01:37:19;;;;;;;;;11.25;9.00;;;;;4.96;91.79;99500.59;4979034;27;102311;-74
2022/11/14 01:39:46;;;;;;;;;8.00;7.00;;;;;4.97;91.25;99501.44;4989645;27;101996;-74
2022/11/14 01:42:13;;;;;;;;;8.25;7.50;;;;;4.96;90.95;99495.25;4986343;27;102508;-73
2022/11/14 01:44:47;;;;;;;;;9.00;7.50;;;;;4.95;91.33;99488.22;4988691;27;104520;-73
2022/11/14 01:47:19;;;;;;;;;12.50;11.25;;;;;4.92;90.94;99493.84;4989023;27;103546;-73
2022/11/14 01:49:52;;;;;;;;;12.00;8.00;;;;;4.94;91.56;99491.88;4989801;27;102166;-74
2022/11/14 01:52:33;;;;;;;;;8.75;4.25;;;;;4.98;91.32;99489.75;4986298;27;103693;-73
2022/11/14 01:55:06;;;;;;;;;3.50;3.50;;;;;4.92;91.21;99472.41;4988157;27;103998;-73
2022/11/14 01:57:43;;;;;;;;;7.00;6.25;;;;;4.98;91.27;99487.91;4983573;28;102317;-73
2022/11/14 02:00:11;;;;;;;;;9.00;7.75;;;;;5.01;90.93;99482.25;4987800;27;102196;-73
2022/11/14 02:02:38;;;;;;;;;24.50;17.25;;;;;4.89;91.29;99488.78;4987498;27;102165;-72
2022/11/14 02:05:28;;;;;;;;;27.50;22.75;;;;;4.81;91.93;99496.69;4987055;27;103913;-74
2022/11/14 02:08:11;;;;;;;;;28.25;19.50;;;;;4.74;92.20;99479.47;4980939;27;102303;-74
2022/11/14 02:11:05;;;;;;;;;13.00;13.00;;;;;4.80;91.90;99481.59;4984427;27;102494;-73
2022/11/14 02:13:51;;;;;;;;;17.00;12.25;;;;;4.63;92.43;99461.75;4986599;28;102954;-74
2022/11/14 02:16:34;;;;;;;;;15.50;12.00;;;;;4.72;92.00;99476.97;4983084;27;103707;-73
2022/11/14 02:20:06;;;;;;;;;32.75;21.25;;;;;4.63;92.46;99485.00;4982735;27;102303;-74
2022/11/14 02:22:45;;;;;;;;;33.50;27.00;;;;;4.50;92.61;99472.72;4986329;27;103228;-74
2022/11/14 02:25:17;;;;;;;;;34.25;27.25;;;;;4.50;93.10;99483.44;4980729;27;102480;-73
2022/11/14 02:27:44;;;;;;;;;45.00;37.25;;;;;4.31;93.33;99478.09;4987434;27;103999;-74
2022/11/14 02:30:19;;;;;;;;;23.25;17.50;;;;;4.39;93.63;99470.19;4987864;27;102311;-74
2022/11/14 02:32:46;;;;;;;;;34.75;27.25;;;;;4.32;93.55;99479.75;4984195;27;102106;-73
2022/11/14 02:35:33;;;;;;;;;37.00;32.00;;;;;4.19;94.85;99475.69;4993756;27;102545;-73
2022/11/14 02:38:00;;;;;;;;;36.25;28.00;;;;;4.12;94.38;99475.41;4991890;27;104040;-74
2022/11/14 02:40:27;;;;;;;;;37.50;24.50;;;;;4.16;94.57;99476.81;4984774;27;102484;-74
2022/11/14 02:42:54;;;;;;;;;29.00;23.50;;;;;4.15;94.42;99466.22;4982720;27;102214;-74
2022/11/14 02:45:21;;;;;;;;;36.00;29.50;;;;;4.09;94.77;99466.81;4991114;27;102238;-73
2022/11/14 02:47:48;;;;;;;;;24.25;21.25;;;;;4.05;93.95;99466.25;4979353;27;104011;-75
2022/11/14 02:50:16;;;;;;;;;34.75;27.50;;;;;4.03;94.61;99457.50;4980212;27;102478;-73
2022/11/14 02:52:43;;;;;;;;;23.00;18.75;;;;;4.16;94.56;99458.06;4986186;27;102069;-74
2022/11/14 02:55:10;;;;;;;;;25.00;22.25;;;;;4.18;94.75;99444.56;4991699;27;103939;-72
2022/11/14 02:57:37;;;;;;;;;31.25;26.50;;;;;4.14;94.36;99438.66;4989249;27;108665;-74
2022/11/14 03:00:04;;;;;;;;;44.00;32.50;;;;;4.08;94.63;99449.91;4993061;27;102122;-73
2022/11/14 03:02:38;;;;;;;;;39.75;30.50;;;;;4.01;95.12;99443.41;4992150;27;102517;-73
2022/11/14 03:05:06;;;;;;;;;32.25;28.75;;;;;3.99;95.15;99451.59;4995251;27;102248;-74
2022/11/14 03:07:33;;;;;;;;;34.50;29.25;;;;;3.94;95.42;99445.78;4986681;27;103974;-73
2022/11/14 03:10:01;;;;;;;;;26.75;23.00;;;;;3.98;95.49;99452.56;4985475;28;102017;-75
2022/11/14 03:12:28;;;;;;;;;30.75;25.00;;;;;4.02;95.64;99455.78;4992633;27;102219;-74
2022/11/14 03:14:55;;;;;;;;;17.00;14.25;;;;;4.10;94.54;99442.56;4988317;27;103310;-74
2022/11/14 03:17:23;;;;;;;;;12.00;10.50;;;;;4.20;94.94;99439.91;4992431;27;103988;-74
2022/11/14 03:19:50;;;;;;;;;16.00;12.25;;;;;4.18;94.97;99434.72;4992757;27;102577;-74
2022/11/14 03:22:17;;;;;;;;;43.00;36.00;;;;;3.95;94.59;99441.28;4993031;27;102348;-73
2022/11/14 03:24:44;;;;;;;;;34.75;29.75;;;;;3.90;94.85;99440.88;4990431;27;102652;-73
2022/11/14 03:27:11;;;;;;;;;35.50;34.00;;;;;3.77;95.14;99442.94;4987307;27;103849;-74
2022/11/14 03:29:38;;;;;;;;;18.00;15.50;;;;;3.94;95.65;99442.28;4994647;27;102385;-74
2022/11/14 03:32:05;;;;;;;;;21.25;15.25;;;;;3.93;95.37;99430.72;4991416;27;110038;-74
2022/11/14 03:34:32;;;;;;;;;12.50;10.75;;;;;4.09;95.29;99448.91;5001774;27;102471;-75
2022/11/14 03:36:59;;;;;;;;;25.00;20.75;;;;;4.07;94.74;99447.34;4988720;27;103811;-75
2022/11/14 03:39:26;;;;;;;;;37.50;28.50;;;;;3.87;94.93;99439.28;4993287;27;102465;-74
2022/11/14 03:41:53;;;;;;;;;26.00;22.75;;;;;3.97;94.72;99442.84;4989161;27;102212;-75
2022/11/14 03:44:20;;;;;;;;;41.00;31.25;;;;;3.78;94.92;99436.63;4990280;27;102064;-74
2022/11/14 03:46:47;;;;;;;;;37.00;31.75;;;;;3.72;94.99;99437.16;4984679;27;103942;-74
2022/11/14 03:49:14;;;;;;;;;21.00;15.75;;;;;3.82;95.60;99438.88;4986034;27;102319;-74
2022/11/14 03:51:41;;;;;;;;;30.00;21.75;;;;;3.84;94.94;99442.25;4992916;27;102999;-73
2022/11/14 03:54:08;;;;;;;;;29.75;26.25;;;;;3.86;95.23;99439.44;4991170;27;101996;-74
2022/11/14 03:56:35;;;;;;;;;24.75;19.75;;;;;3.93;95.44;99432.56;4992876;27;108539;-74
2022/11/14 03:59:02;;;;;;;;;16.25;12.25;;;;;4.03;94.86;99441.44;4994167;27;102146;-74
2022/11/14 04:01:29;;;;;;;;;7.00;6.25;;;;;3.92;94.99;99410.28;4992330;27;102179;-74
2022/11/14 04:03:56;;;;;;;;;32.25;27.25;;;;;3.89;94.96;99423.09;4989308;27;101827;-74
2022/11/14 04:06:23;;;;;;;;;42.50;33.75;;;;;3.83;95.67;99435.19;4992382;27;103969;-75
2022/11/14 04:08:50;;;;;;;;;26.25;20.75;;;;;3.94;95.71;99431.56;4992135;27;102936;-74
2022/11/14 04:11:18;;;;;;;;;28.50;25.75;;;;;3.79;95.34;99422.25;4991955;28;102274;-75
2022/11/14 04:13:45;;;;;;;;;21.00;16.00;;;;;3.95;95.23;99430.59;4989877;27;102268;-74
2022/11/14 04:16:12;;;;;;;;;26.75;19.00;;;;;3.99;95.46;99426.66;4991525;27;103968;-74
2022/11/14 04:18:39;;;;;;;;;15.75;15.75;;;;;4.03;95.15;99415.53;4982593;28;102301;-75
2022/11/14 04:21:06;;;;;;;;;28.50;22.75;;;;;3.95;95.50;99418.06;4992527;27;102152;-75
2022/11/14 04:23:33;;;;;;;;;28.75;24.75;;;;;3.97;94.95;99423.25;4991781;27;102227;-75
2022/11/14 04:26:00;;;;;;;;;25.00;19.00;;;;;3.98;95.21;99419.59;4984344;27;103645;-74
2022/11/14 04:28:27;;;;;;;;;30.00;23.75;;;;;3.98;95.34;99422.28;4991324;27;102407;-73
2022/11/14 04:30:54;;;;;;;;;41.00;25.75;;;;;3.91;94.76;99421.16;4990582;27;102360;-74
2022/11/14 04:33:21;;;;;;;;;28.50;22.00;;;;;3.93;95.10;99424.53;4989977;27;102301;-75
2022/11/14 04:35:48;;;;;;;;;33.75;28.25;;;;;3.89;95.57;99418.63;4983954;27;103993;-74
2022/11/14 04:38:15;;;;;;;;;32.00;24.75;;;;;3.90;96.03;99419.47;4991371;27;102188;-74
2022/11/14 04:40:50;;;;;;;;;17.00;13.00;;;;;3.96;95.47;99418.91;4989601;27;101999;-79
2022/11/14 04:43:18;;;;;;;;;31.75;25.75;;;;;3.84;95.66;99420.00;4987865;28;101963;-75
2022/11/14 04:45:45;;;;;;;;;32.00;27.50;;;;;3.64;96.02;99403.09;4988791;27;105821;-76
2022/11/14 04:48:12;;;;;;;;;37.00;28.50;;;;;3.67;95.85;99418.00;4989099;27;102069;-77
2022/11/14 04:50:39;;;;;;;;;26.00;22.00;;;;;3.76;96.15;99418.03;4999156;27;102607;-77
2022/11/14 04:53:06;;;;;;;;;16.50;12.00;;;;;3.84;95.88;99414.66;4990014;27;102411;-75
2022/11/14 04:55:33;;;;;;;;;7.50;6.00;;;;;3.93;95.44;99417.34;4988395;27;104008;-77
2022/11/14 04:58:01;;;;;;;;;11.75;9.25;;;;;3.93;95.06;99412.00;4972537;27;105464;-75
2022/11/14 05:00:28;;;;;;;;;6.00;5.00;;;;;3.99;95.14;99402.56;4979328;27;102505;-74
2022/11/14 05:02:57;;;;;;;;;13.75;11.00;;;;;3.99;94.30;99402.56;4975742;27;102641;-76
2022/11/14 05:05:24;;;;;;;;;13.50;10.00;;;;;3.98;94.03;99401.72;4994808;27;103985;-76
2022/11/14 05:07:53;;;;;;;;;8.00;8.00;;;;;3.99;93.51;99399.91;4981097;27;102202;-76
2022/11/14 05:10:20;;;;;;;;;8.25;7.00;;;;;3.93;94.24;99379.88;4999236;28;102403;-74
2022/11/14 05:12:47;;;;;;;;;5.00;3.00;;;;;3.91;93.73;99375.69;4989275;27;102380;-76
2022/11/14 05:15:14;;;;;;;;;5.00;3.00;;;;;4.12;93.69;99400.47;4982512;27;103994;-76
2022/11/14 05:17:40;;;;;;;;;8.25;7.25;;;;;4.09;93.17;99397.22;4983409;27;102375;-76
2022/11/14 05:20:08;;;;;;;;;26.75;22.75;;;;;3.84;93.94;99398.59;4980466;28;102388;-78
2022/11/14 05:22:35;;;;;;;;;17.25;15.25;;;;;3.83;94.90;99397.75;4983378;27;102287;-76
2022/11/14 05:25:02;;;;;;;;;22.50;15.75;;;;;3.81;94.71;99394.38;4978321;27;104158;-75
2022/11/14 05:27:30;;;;;;;;;20.50;17.00;;;;;3.81;94.66;99404.25;4982108;27;102124;-76
2022/11/14 05:29:57;;;;;;;;;15.00;11.00;;;;;3.88;95.46;99411.56;4981128;27;102162;-74
2022/11/14 05:32:24;;;;;;;;;15.25;11.00;;;;;3.88;94.67;99408.88;4982714;27;103344;-74
2022/11/14 05:34:51;;;;;;;;;19.50;13.75;;;;;3.80;95.18;99406.06;4985345;27;104369;-74
2022/11/14 05:37:18;;;;;;;;;18.50;16.25;;;;;3.73;95.93;99406.78;4981024;27;102430;-75
2022/11/14 05:39:45;;;;;;;;;14.00;10.00;;;;;3.84;95.14;99407.47;4981211;28;105810;-75
2022/11/14 05:42:12;;;;;;;;;19.50;17.25;;;;;3.72;94.62;99405.06;4981683;28;102384;-75
2022/11/14 05:44:39;;;;;;;;;18.00;15.00;;;;;3.74;94.91;99403.94;4981860;27;103249;-75
2022/11/14 05:47:06;;;;;;;;;12.00;10.00;;;;;3.84;95.46;99404.81;4975812;27;103744;-75
2022/11/14 05:49:33;;;;;;;;;5.50;5.00;;;;;3.93;94.74;99390.59;4977991;27;104381;-76
2022/11/14 05:52:00;;;;;;;;;8.50;7.75;;;;;3.92;94.95;99396.06;4984610;27;102445;-76
2022/11/14 05:54:27;;;;;;;;;9.50;9.00;;;;;3.93;94.52;99393.28;4986651;27;103989;-74
2022/11/14 05:56:54;;;;;;;;;6.00;6.00;;;;;3.95;94.54;99403.84;4973467;27;102506;-76
2022/11/14 05:59:21;;;;;;;;;20.25;16.00;;;;;3.86;95.21;99402.00;4986842;27;102405;-75
2022/11/14 06:01:48;;;;;;;;;16.00;12.00;;;;;3.89;94.75;99397.22;4988229;27;102353;-74
2022/11/14 06:04:15;;;;;;;;;16.75;13.50;;;;;3.86;94.82;99392.16;4990393;27;104086;-75
2022/11/14 06:06:42;;;;;;;;;13.00;11.00;;;;;3.97;95.03;99399.19;4988682;27;102193;-75
2022/11/14 06:09:09;;;;;;;;;7.25;7.25;;;;;4.03;94.88;99395.94;4990175;27;102426;-76
2022/11/14 06:11:36;;;;;;;;;11.75;7.75;;;;;3.92;94.14;99390.72;4992758;27;102072;-75
2022/11/14 06:14:05;;;;;;;;;10.25;7.00;;;;;3.97;94.34;99388.47;4994431;27;104075;-74
2022/11/14 06:16:36;;;;;;;;;15.50;12.00;;;;;3.85;94.19;99389.59;4993008;27;102541;-74
2022/11/14 06:19:04;;;;;;;;;12.00;11.75;;;;;3.82;94.51;99395.25;4990645;27;102383;-75
2022/11/14 06:21:31;;;;;;;;;7.75;7.00;;;;;3.88;94.56;99406.22;4994104;27;102784;-75
2022/11/14 06:23:58;;;;;;;;;7.75;6.50;;;;;3.87;93.94;99414.41;4991307;27;104049;-74
2022/11/14 06:26:31;;;;;;;;;6.25;5.25;;;;;3.86;94.41;99410.88;4989903;27;103503;-74
2022/11/14 06:28:59;;;;;;;;;12.50;10.25;;;;;3.84;94.46;99420.00;4980481;27;102408;-73
2022/11/14 06:31:26;;;;;;;;;8.00;7.00;;;;;3.88;94.88;99416.06;4994360;27;102170;-74
2022/11/14 06:33:53;;;;;;;;;7.50;3.75;;;;;3.95;94.54;99422.56;4994412;27;103971;-73
2022/11/14 06:36:20;;;;;;;;;8.25;5.75;;;;;3.98;94.26;99419.59;4985883;27;103901;-74
2022/11/14 06:38:47;;;;;;;;;7.75;6.50;;;;;4.01;93.95;99416.63;4994315;27;103226;-74
2022/11/14 06:41:17;;;;;;;;;14.75;12.75;;;;;3.88;94.04;99402.69;4986148;27;101984;-74
2022/11/14 06:43:46;;;;;;;;;19.75;14.75;;;;;3.88;94.92;99416.91;4982450;27;104155;-74
2022/11/14 06:46:17;;;;;;;;;17.50;14.25;;;;;3.86;94.99;99408.19;4991541;27;102248;-74
2022/11/14 06:48:45;;;;;;;;;18.50;17.25;;;;;3.86;95.16;99412.69;4991085;27;102148;-74
2022/11/14 06:51:13;;;;;;;;;20.00;14.25;;;;;3.84;95.32;99395.94;4983750;27;102440;-74
2022/11/14 06:53:42;;;;;;;;;12.75;10.25;;;;;4.03;95.03;99401.31;4990718;27;104162;-72
2022/11/14 06:56:14;;;;;;;;;16.25;10.00;;;;;4.08;94.70;99398.22;4994666;27;102286;-74
2022/11/14 06:58:45;;;;;;;;;9.25;6.75;;;;;4.11;94.27;99403.28;4989042;27;102195;-73
2022/11/14 07:01:12;;;;;;;;;3.50;3.00;;;;;4.22;94.42;99404.00;4986454;27;102100;-73
2022/11/14 07:03:40;;;;;;;;;10.25;8.00;;;;;4.21;93.98;99414.81;4992225;27;105216;-74
2022/11/14 07:06:09;;;;;;;;;5.50;5.00;;;;;4.34;94.05;99407.34;4993758;27;102205;-74
2022/11/14 07:08:36;;;;;;;;;5.75;3.00;;;;;4.39;93.49;99403.28;4993992;27;102535;-74
2022/11/14 07:11:09;;;;;;;;;2.00;1.00;;;;;4.49;93.71;99403.25;4992642;27;102464;-74
2022/11/14 07:13:37;;;;;;;;;4.00;2.00;;;;;4.59;93.37;99412.13;4990498;27;107030;-74
2022/11/14 07:16:04;;;;;;;;;1.25;1.25;;;;;4.65;92.89;99416.06;4981305;27;102386;-74
2022/11/14 07:18:32;;;;;;;;;6.00;3.00;;;;;4.67;91.85;99416.75;4990085;27;101860;-74
2022/11/14 07:21:02;;;;;;;;;6.75;6.00;;;;;4.60;91.29;99410.28;4992425;27;102060;-74
2022/11/14 07:23:31;;;;;;;;;7.33;6.33;;;;;4.59;91.20;99411.28;4986416;27;103757;-74
2022/11/14 07:26:03;;;;;;;;;7.75;6.00;;;;;4.45;91.87;99402.72;4992167;27;102385;-74
2022/11/14 07:28:30;;;;;;;;;21.00;15.25;;;;;4.26;92.95;99407.22;4988264;27;110494;-75
2022/11/14 07:30:58;;;;;;;;;11.00;9.50;;;;;4.32;93.39;99410.16;4983855;28;104289;-74
2022/11/14 07:33:25;;;;;;;;;12.00;9.75;;;;;4.30;93.00;99411.31;4973921;27;103595;-75
2022/11/14 07:35:52;;;;;;;;;18.50;16.75;;;;;4.31;93.66;99405.81;4991124;27;102409;-74
2022/11/14 07:38:19;;;;;;;;;9.00;6.00;;;;;4.42;93.00;99400.28;4991590;27;102512;-74
2022/11/14 07:40:55;;;;;;;;;6.00;4.25;;;;;4.52;92.86;99394.94;4993322;27;102325;-74
2022/11/14 07:43:26;;;;;;;;;4.00;4.00;;;;;4.66;92.74;99396.31;4991472;27;103545;-74
2022/11/14 07:45:57;;;;;;;;;9.25;7.00;;;;;4.69;92.45;99396.88;4992051;27;102238;-73
2022/11/14 07:48:24;;;;;;;;;13.00;10.50;;;;;4.64;92.86;99391.09;4989874;28;102359;-74
2022/11/14 07:50:51;;;;;;;;;6.75;6.50;;;;;4.52;92.25;99361.94;4993178;27;103821;-73
2022/11/14 07:53:18;;;;;;;;;8.50;7.75;;;;;4.77;92.21;99393.50;4990519;27;104011;-74
2022/11/14 07:55:46;;;;;;;;;5.00;4.25;;;;;4.78;91.79;99385.28;4980405;27;102105;-73
2022/11/14 07:58:13;;;;;;;;;8.00;8.00;;;;;4.74;91.17;99383.88;4994720;27;102217;-73
2022/11/14 08:00:40;;;;;;;;;6.75;4.50;;;;;4.86;91.05;99387.25;4993914;27;102271;-74
2022/11/14 08:03:07;;;;;;;;;8.75;8.50;;;;;4.64;91.63;99363.50;4991646;27;108513;-74
2022/11/14 08:05:34;;;;;;;;;20.25;17.00;;;;;4.52;92.13;99375.34;4984836;27;102418;-74
2022/11/14 08:08:01;;;;;;;;;16.50;13.00;;;;;4.52;93.19;99375.34;4990747;27;102356;-74
2022/11/14 08:10:28;;;;;;;;;12.75;11.25;;;;;4.67;93.29;99368.56;4989726;27;102098;-75
2022/11/14 08:13:01;;;;;;;;;7.00;6.25;;;;;4.87;93.14;99375.53;4990939;27;103964;-73
2022/11/14 08:15:49;;;;;;;;;5.50;5.50;;;;;5.00;93.23;99373.38;4987524;27;102420;-73
2022/11/14 08:18:16;;;;;;;;;7.00;7.00;;;;;5.08;91.57;99359.25;4991187;27;101906;-73
2022/11/14 08:20:43;;;;;;;;;6.75;4.00;;;;;5.22;91.42;99356.91;4992777;27;102168;-73
2022/11/14 08:23:11;;;;;;;;;10.50;8.75;;;;;5.25;89.85;99347.72;4992533;27;104160;-74
2022/11/14 08:25:39;;;;;;;;;8.00;7.50;;;;;5.21;90.02;99328.44;4990477;27;102283;-74
2022/11/14 08:28:06;;;;;;;;;5.75;3.75;;;;;5.38;90.06;99346.38;4989770;27;105129;-74
2022/11/14 08:30:33;;;;;;;;;9.50;8.00;;;;;5.46;90.14;99353.66;4982987;27;102234;-74
2022/11/14 08:33:02;;;;;;;;;8.75;7.50;;;;;5.45;88.82;99348.47;4982045;28;103999;-73
2022/11/14 08:35:29;;;;;;;;;12.50;9.50;;;;;5.56;89.68;99351.78;4984015;27;102285;-73
2022/11/14 08:37:56;;;;;;;;;6.75;4.50;;;;;5.58;88.66;99346.28;4983950;27;102343;-73
2022/11/14 08:40:23;;;;;;;;;13.00;8.75;;;;;5.52;88.06;99347.72;4992645;27;102474;-75
2022/11/14 08:42:50;;;;;;;;;21.25;14.00;;;;;5.18;89.47;99339.44;4969992;27;104069;-74
2022/11/14 08:45:17;;;;;;;;;14.00;11.75;;;;;5.25;90.06;99345.06;4990615;28;102386;-74
2022/11/14 08:47:52;;;;;;;;;9.00;7.50;;;;;5.41;89.65;99350.59;4990321;27;102010;-73
2022/11/14 08:50:19;;;;;;;;;6.00;3.75;;;;;5.58;89.68;99346.28;4989681;27;102373;-74
2022/11/14 08:52:50;;;;;;;;;6.00;6.00;;;;;5.69;89.00;99338.00;4990943;27;104059;-74
2022/11/14 08:55:18;;;;;;;;;8.25;4.00;;;;;5.73;88.34;99350.09;4988558;27;102289;-74
2022/11/14 08:57:46;;;;;;;;;9.25;6.50;;;;;5.72;87.78;99343.03;4987886;27;103302;-74
2022/11/14 09:00:16;;;;;;;;;11.00;8.00;;;;;5.72;88.28;99338.53;4976912;28;102093;-74
2022/11/14 09:02:44;;;;;;;;;14.00;13.25;;;;;5.53;88.51;99343.19;4979770;28;103057;-74
2022/11/14 09:05:11;;;;;;;;;26.00;18.75;;;;;5.20;90.26;99348.19;4980100;27;102374;-75
2022/11/14 09:07:38;;;;;;;;;20.25;16.75;;;;;5.20;90.43;99341.97;4980079;27;102140;-74
2022/11/14 09:10:05;;;;;;;;;15.75;12.75;;;;;5.34;90.99;99349.53;4985015;27;103392;-74
2022/11/14 09:12:33;;;;;;;;;25.50;21.50;;;;;5.26;90.57;99344.91;4988268;27;104087;-74
2022/11/14 09:15:00;;;;;;;;;31.75;25.50;;;;;5.17;91.35;99339.59;4990777;27;102015;-74
2022/11/14 09:17:27;;;;;;;;;16.00;13.50;;;;;5.47;91.87;99344.63;4981506;27;102295;-74
2022/11/14 09:19:54;;;;;;;;;9.50;6.00;;;;;5.69;90.81;99343.38;4989042;27;102330;-74
2022/11/14 09:22:22;;;;;;;;;6.25;6.00;;;;;5.84;89.28;99339.16;4987646;27;104004;-74
2022/11/14 09:24:50;;;;;;;;;7.00;6.50;;;;;5.94;88.79;99342.66;4988716;27;102088;-74
2022/11/14 09:27:17;;;;;;;;;7.25;7.00;;;;;6.04;88.60;99343.41;4983335;27;104408;-74
2022/11/14 09:29:44;;;;;;;;;6.00;5.00;;;;;6.19;87.62;99341.88;4984372;27;102545;-73
2022/11/14 09:32:11;;;;;;;;;3.25;3.00;;;;;6.20;86.73;99343.56;4984603;27;103793;-74
2022/11/14 09:34:41;;;;;;;;;7.25;6.00;;;;;6.16;85.47;99342.19;4985602;27;103500;-74
2022/11/14 09:37:08;;;;;;;;;21.50;15.50;;;;;5.87;87.83;99332.66;4986194;27;102136;-73
2022/11/14 09:39:39;;;;;;;;;19.50;16.25;;;;;5.95;88.79;99333.59;4988331;27;102410;-74
2022/11/14 09:42:25;;;;;;;;;25.25;22.25;;;;;5.76;89.73;99320.31;4985038;27;103761;-74
2022/11/14 09:44:58;;;;;;;;;15.00;13.00;;;;;6.00;89.04;99325.06;4983533;27;103486;-74
2022/11/14 09:47:29;;;;;;;;;10.00;8.75;;;;;6.16;88.86;99315.34;4989278;27;102342;-75
2022/11/14 09:50:10;;;;;;;;;29.50;23.50;;;;;5.99;89.30;99318.84;4989548;27;102018;-74
2022/11/14 09:52:45;;;;;;;;;30.25;24.75;;;;;5.81;90.25;99312.63;4988921;27;103961;-74
2022/11/14 09:55:32;;;;;;;;;20.00;19.00;;;;;6.06;90.90;99303.84;4988579;27;102218;-74
2022/11/14 09:58:17;;;;;;;;;35.25;27.00;;;;;6.14;89.52;99303.03;4954255;27;102294;-75
2022/11/14 10:01:10;;;;;;;;;18.75;16.25;;;;;6.19;88.23;99274.75;4962159;28;102420;-75
2022/11/14 10:04:11;;;;;;;;;10.75;10.00;;;;;6.49;87.20;99297.59;4964574;27;109478;-75
2022/11/14 10:07:26;;;;;;;;;9.25;7.50;;;;;6.72;85.15;99287.16;4930285;27;102537;-75
2022/11/14 10:10:55;;;;;;;;;10.75;9.00;;;;;6.75;86.20;99286.00;4967374;27;102196;-74
2022/11/14 10:13:59;;;;;;;;;11.00;9.25;;;;;6.74;84.42;99274.41;4930620;28;102481;-74
2022/11/14 10:16:38;;;;;;;;;11.75;8.00;;;;;6.80;84.57;99265.69;4967848;28;108428;-74
2022/11/14 10:19:34;;;;;;;;;8.25;8.25;;;;;6.81;85.73;99283.50;4968873;27;102017;-74
2022/11/14 10:22:45;;;;;;;;;12.50;9.75;;;;;6.72;85.85;99279.09;4981935;27;102367;-74
2022/11/14 10:25:21;;;;;;;;;7.00;6.75;;;;;6.79;85.20;99273.94;4981104;27;102405;-75
2022/11/14 10:28:26;;;;;;;;;13.75;10.25;;;;;6.63;85.46;99264.75;4979978;27;104006;-74
2022/11/14 10:31:27;;;;;;;;;12.25;12.25;;;;;6.71;86.19;99256.75;4981040;28;102007;-75
2022/11/14 10:34:25;;;;;;;;;10.00;8.75;;;;;6.93;85.78;99260.72;4974708;28;103511;-75
2022/11/14 10:37:04;;;;;;;;;6.00;4.25;;;;;7.06;85.61;99254.88;4900125;27;102345;-75
2022/11/14 10:39:30;;;;;;;;;13.50;10.00;;;;;7.16;84.68;99258.25;4947589;27;108856;-76
2022/11/14 10:42:03;;;;;;;;;18.50;14.75;;;;;7.01;84.22;99255.38;4896078;28;104030;-75
2022/11/14 10:44:49;;;;;;;;;22.25;20.00;;;;;6.73;86.50;99251.22;4986956;27;102164;-75
2022/11/14 10:47:21;;;;;;;;;25.75;20.25;;;;;6.42;87.95;99255.41;4986499;27;102527;-76
2022/11/14 10:49:54;;;;;;;;;28.25;23.75;;;;;6.27;88.47;99242.56;4988523;27;104021;-75
2022/11/14 10:52:35;;;;;;;;;28.75;25.75;;;;;6.26;89.55;99245.41;4996402;27;102439;-75
2022/11/14 10:55:09;;;;;;;;;25.50;22.00;;;;;6.41;88.24;99237.59;4953039;27;102393;-74
2022/11/14 10:57:36;;;;;;;;;29.50;25.75;;;;;6.26;88.80;99240.88;4984078;27;102060;-75
2022/11/14 11:00:11;;;;;;;;;30.75;27.25;;;;;6.37;88.66;99230.88;4992466;27;104107;-75
2022/11/14 11:02:54;;;;;;;;;28.00;25.50;;;;;6.49;88.56;99230.44;4989536;27;102319;-75
2022/11/14 11:05:29;;;;;;;;;24.00;21.75;;;;;6.61;87.65;99218.44;4987485;27;103827;-75
2022/11/14 11:11:30;;;;;;;;;44.50;32.00;;;;;6.39;89.51;99215.44;4972100;27;107412;-75
2022/11/14 11:14:00;;;;;;;;;29.50;25.75;;;;;6.33;89.79;99214.25;4985927;27;102567;-74
2022/11/14 11:16:28;;;;;;;;;42.75;30.50;;;;;6.18;89.11;99200.53;4975488;27;102343;-75
2022/11/14 11:19:20;;;;;;;;;37.75;32.25;;;;;6.29;89.45;99207.50;4990089;27;102290;-74
2022/11/14 11:21:49;;;;;;;;;17.25;14.00;;;;;6.45;89.02;99201.38;4982732;27;108654;-72
2022/11/14 11:24:31;;;;;;;;;33.25;28.75;;;;;6.34;89.02;99191.75;4988387;27;102500;-73
2022/11/14 11:27:24;;;;;;;;;32.00;27.50;;;;;6.44;88.74;99191.66;4985250;27;103297;-73
2022/11/14 11:30:18;;;;;;;;;30.25;26.00;;;;;6.40;88.94;99182.19;4981769;27;103230;-73
2022/11/14 11:32:45;;;;;;;;;35.50;28.00;;;;;6.31;89.32;99181.31;4956069;27;108241;-73
2022/11/14 11:35:15;;;;;;;;;19.50;18.25;;;;;6.68;88.34;99175.59;4957329;27;102547;-74
2022/11/14 11:37:54;;;;;;;;;11.75;8.50;;;;;6.93;88.03;99185.47;4934989;27;102575;-73
2022/11/14 11:40:25;;;;;;;;;10.50;10.00;;;;;6.95;86.51;99170.00;4900121;27;102338;-73
2022/11/14 11:43:03;;;;;;;;;27.75;23.25;;;;;6.74;86.55;99172.28;4907633;28;103999;-74